Time;durP1;ratioP1;P1;durP2;ratioP2;P2;SDS_P1;SDS_P2;PMS_P1;PMS_P2;Temp;Humidity;BMP_temperature;BMP_pressure;BME280_temperature;BME280_humidity;BME280_pressure;Samples;Min_cycle;Max_cycle;Signal;HPM_P1;HPM_P2
2022/10/05 00:00:25;;;;;;;8.20;7.47;;;;;;;8.43;100.00;100767.22;5080153;28;20467;-73
2022/10/05 00:02:52;;;;;;;8.23;7.57;;;;;;;8.39;100.00;100774.94;5084704;28;20233;-73
2022/10/05 00:05:44;;;;;;;8.13;7.43;;;;;;;8.34;100.00;100774.03;5075303;28;20170;-74
2022/10/05 00:08:09;;;;;;;8.53;7.83;;;;;;;8.30;100.00;100766.25;5074659;28;20220;-72
2022/10/05 00:10:35;;;;;;;7.50;6.90;;;;;;;8.26;100.00;100769.66;5076428;28;20189;-72
2022/10/05 00:13:01;;;;;;;7.20;6.70;;;;;;;8.22;100.00;100779.09;5083475;28;20264;-73
2022/10/05 00:15:28;;;;;;;8.07;7.37;;;;;;;8.19;100.00;100776.47;5083181;28;20654;-73
2022/10/05 00:17:54;;;;;;;8.70;7.90;;;;;;;8.15;100.00;100775.59;5076784;28;20546;-74
2022/10/05 00:20:24;;;;;;;8.53;7.63;;;;;;;8.15;100.00;100785.06;5081632;28;20645;-72
2022/10/05 00:22:56;;;;;;;8.73;7.93;;;;;;;8.13;100.00;100776.44;5072388;28;20189;-72
2022/10/05 00:25:22;;;;;;;8.83;7.97;;;;;;;8.11;100.00;100783.28;5075269;28;20273;-73
2022/10/05 00:27:55;;;;;;;11.53;7.80;;;;;;;8.08;100.00;100786.72;5084003;28;20295;-73
2022/10/05 00:30:22;;;;;;;12.03;8.77;;;;;;;8.07;100.00;100785.84;5076883;28;20182;-75
2022/10/05 00:32:47;;;;;;;16.17;8.63;;;;;;;8.08;100.00;100792.72;5081505;28;20242;-73
2022/10/05 00:35:15;;;;;;;15.87;8.23;;;;;;;8.11;100.00;100794.44;5077321;28;20212;-73
2022/10/05 00:37:40;;;;;;;13.23;7.87;;;;;;;8.14;100.00;100791.91;5072283;28;20210;-74
2022/10/05 00:40:22;;;;;;;13.03;7.50;;;;;;;8.17;100.00;100788.47;5077149;28;20192;-72
2022/10/05 00:43:04;;;;;;;10.60;7.73;;;;;;;8.15;100.00;100796.22;5079097;28;20741;-72
2022/10/05 00:45:40;;;;;;;11.53;7.17;;;;;;;8.14;100.00;100799.66;5078663;28;20203;-73
2022/10/05 00:48:05;;;;;;;7.60;6.90;;;;;;;8.09;100.00;100803.91;5071221;28;20224;-72
2022/10/05 00:50:49;;;;;;;8.37;6.80;;;;;;;8.07;100.00;100798.72;5074993;28;20209;-72
2022/10/05 00:53:17;;;;;;;6.50;6.00;;;;;;;8.06;100.00;100798.72;5081484;28;20188;-73
2022/10/05 00:56:01;;;;;;;7.13;6.50;;;;;;;8.05;100.00;100795.25;5082848;28;20302;-71
2022/10/05 00:58:43;;;;;;;6.00;5.50;;;;;;;8.02;100.00;100799.53;5078033;28;20697;-72
2022/10/05 01:01:15;;;;;;;6.50;6.00;;;;;;;8.02;100.00;100794.38;5075395;28;20205;-71
2022/10/05 01:03:48;;;;;;;5.63;5.23;;;;;;;8.00;100.00;100796.94;5077123;28;20191;-73
2022/10/05 01:06:30;;;;;;;6.37;5.87;;;;;;;8.00;100.00;100799.53;5078451;28;20187;-71
2022/10/05 01:09:16;;;;;;;6.43;5.80;;;;;;;7.97;100.00;100790.88;5079303;28;20213;-73
2022/10/05 01:12:02;;;;;;;6.50;6.00;;;;;;;7.93;100.00;100790.88;5073408;28;20204;-73
2022/10/05 01:14:51;;;;;;;6.20;5.70;;;;;;;7.91;100.00;100791.69;5069353;28;20190;-72
2022/10/05 01:17:40;;;;;;;6.10;5.60;;;;;;;7.87;100.00;100790.78;5072604;28;20186;-74
2022/10/05 01:20:18;;;;;;;6.43;5.83;;;;;;;7.84;100.00;100788.19;5082725;28;20193;-72
2022/10/05 01:23:05;;;;;;;6.70;6.10;;;;;;;7.80;100.00;100788.13;5074025;28;20187;-74
2022/10/05 01:25:43;;;;;;;7.33;6.63;;;;;;;7.77;100.00;100776.94;5080099;28;20201;-75
2022/10/05 01:28:18;;;;;;;6.60;6.00;;;;;;;7.80;100.00;100776.09;5073633;28;20697;-73
2022/10/05 01:30:53;;;;;;;7.03;6.20;;;;;;;7.84;100.00;100772.72;5080141;28;20267;-73
2022/10/05 01:33:32;;;;;;;7.13;6.50;;;;;;;7.89;100.00;100762.44;5072377;28;20189;-72
2022/10/05 01:36:09;;;;;;;6.03;5.47;;;;;;;7.92;100.00;100758.22;5081510;28;20220;-72
2022/10/05 01:39:03;;;;;;;5.63;5.13;;;;;;;7.94;100.00;100753.06;5082515;28;20212;-73
2022/10/05 01:41:53;;;;;;;6.03;5.53;;;;;;;7.94;100.00;100753.06;5081151;28;20272;-75
2022/10/05 01:44:28;;;;;;;6.03;5.53;;;;;;;7.96;100.00;100758.22;5073654;28;20227;-73
2022/10/05 01:47:07;;;;;;;5.93;5.43;;;;;;;7.94;100.00;100755.63;5072698;28;20180;-73
2022/10/05 01:49:41;;;;;;;5.80;5.27;;;;;;;7.89;100.00;100752.16;5078528;28;20253;-74
2022/10/05 01:52:31;;;;;;;7.53;5.60;;;;;;;7.84;100.00;100749.53;5076464;28;20698;-74
2022/10/05 01:54:59;;;;;;;6.80;6.20;;;;;;;7.80;100.00;100752.06;5077080;28;20217;-73
2022/10/05 01:57:37;;;;;;;5.90;5.50;;;;;;;7.74;100.00;100760.59;5079811;28;20185;-72
2022/10/05 02:00:19;;;;;;;6.60;6.00;;;;;;;7.70;100.00;100757.13;5083800;28;20191;-74
2022/10/05 02:02:49;;;;;;;6.67;6.07;;;;;;;7.67;100.00;100756.22;5075522;28;20195;-73
2022/10/05 02:05:25;;;;;;;6.03;5.43;;;;;;;7.63;100.00;100758.78;5077719;28;20206;-73
2022/10/05 02:07:59;;;;;;;6.70;6.00;;;;;;;7.62;100.00;100754.47;5082863;28;20200;-74
2022/10/05 02:10:56;;;;;;;6.17;5.67;;;;;;;7.58;100.00;100757.88;5077307;28;20207;-74
2022/10/05 02:13:45;;;;;;;6.57;5.80;;;;;;;7.55;100.00;100765.53;5080250;28;20194;-74
2022/10/05 02:16:22;;;;;;;6.07;5.57;;;;;;;7.53;100.00;100761.25;5078725;28;20231;-73
2022/10/05 02:18:51;;;;;;;6.43;5.83;;;;;;;7.51;100.00;100768.09;5077745;28;20254;-74
2022/10/05 02:21:18;;;;;;;6.80;5.97;;;;;;;7.51;100.00;100768.09;5083831;28;20271;-73
2022/10/05 02:23:47;;;;;;;6.67;6.07;;;;;;;7.51;100.00;100768.09;5083618;28;20681;-73
2022/10/05 02:26:12;;;;;;;6.97;6.37;;;;;;;7.51;100.00;100771.50;5084852;28;20177;-73
2022/10/05 02:28:52;;;;;;;6.50;5.90;;;;;;;7.52;100.00;100773.25;5082481;28;20218;-73
2022/10/05 02:31:39;;;;;;;6.57;5.97;;;;;;;7.54;100.00;100776.69;5091432;28;20185;-75
2022/10/05 02:34:22;;;;;;;6.70;6.17;;;;;;;7.56;100.00;100785.31;5103835;28;20167;-76
2022/10/05 02:37:29;;;;;;;6.77;6.10;;;;;;;7.56;100.00;100780.16;5081219;28;20692;-73
2022/10/05 02:40:08;;;;;;;6.07;5.57;;;;;;;7.56;100.00;100780.16;5066730;28;20270;-73
2022/10/05 02:42:45;;;;;;;6.17;5.57;;;;;;;7.53;100.00;100784.41;5075301;28;20568;-73
2022/10/05 02:45:28;;;;;;;6.20;5.70;;;;;;;7.50;100.00;100780.06;5080715;28;20238;-73
2022/10/05 02:48:18;;;;;;;5.93;5.43;;;;;;;7.47;100.00;100775.75;5082619;28;20212;-73
2022/10/05 02:50:49;;;;;;;5.90;5.40;;;;;;;7.46;100.00;100779.19;5076057;28;20213;-72
2022/10/05 02:53:40;;;;;;;5.90;5.30;;;;;;;7.47;100.00;100782.63;5074374;28;20185;-73
2022/10/05 02:56:24;;;;;;;5.97;5.47;;;;;;;7.47;100.00;100775.75;5078905;28;20204;-73
2022/10/05 02:59:03;;;;;;;6.10;5.60;;;;;;;7.49;100.00;100765.47;5085916;28;20207;-72
2022/10/05 03:01:40;;;;;;;6.30;5.80;;;;;;;7.52;100.00;100767.22;5072646;28;20190;-72
2022/10/05 03:04:33;;;;;;;6.53;5.93;;;;;;;7.53;100.00;100767.25;5079339;28;20188;-73
2022/10/05 03:07:14;;;;;;;6.17;5.67;;;;;;;7.55;100.00;100760.41;5084253;28;20229;-74
2022/10/05 03:09:51;;;;;;;6.27;5.70;;;;;;;7.57;100.00;100757.81;5070141;28;20258;-73
2022/10/05 03:12:32;;;;;;;6.13;5.63;;;;;;;7.57;100.00;100742.38;5077032;28;20190;-73
2022/10/05 03:15:09;;;;;;;5.60;5.20;;;;;;;7.57;100.00;100747.53;5077375;28;20241;-73
2022/10/05 03:17:52;;;;;;;5.67;5.17;;;;;;;7.58;100.00;100746.69;5084088;28;20209;-74
2022/10/05 03:20:48;;;;;;;6.20;5.80;;;;;;;7.60;100.00;100745.00;5077557;28;20226;-74
2022/10/05 03:23:31;;;;;;;5.87;5.37;;;;;;;7.63;100.00;100740.75;5077631;28;20270;-75
2022/10/05 03:26:14;;;;;;;6.10;5.60;;;;;;;7.69;100.00;100732.22;5073913;28;20884;-74
2022/10/05 03:28:48;;;;;;;5.90;5.30;;;;;;;7.78;100.00;100732.31;5084494;28;20263;-74
2022/10/05 03:31:22;;;;;;;6.00;5.50;;;;;;;7.86;100.00;100732.38;5079204;28;20275;-74
2022/10/05 03:34:00;;;;;;;5.63;5.13;;;;;;;7.94;100.00;100727.28;5078080;28;20671;-74
2022/10/05 03:36:43;;;;;;;6.30;5.70;;;;;;;8.00;100.00;100723.91;5069754;28;20573;-75
2022/10/05 03:39:25;;;;;;;5.93;5.47;;;;;;;8.02;100.00;100720.47;5068512;28;20293;-74
2022/10/05 03:41:54;;;;;;;6.67;6.17;;;;;;;8.02;100.00;100722.19;5075258;28;20303;-73
2022/10/05 03:44:35;;;;;;;6.30;5.70;;;;;;;8.04;100.00;100723.09;5077327;28;20651;-74
2022/10/05 03:47:06;;;;;;;6.50;6.00;;;;;;;8.04;100.00;100723.09;5075058;28;20205;-74
2022/10/05 03:49:40;;;;;;;8.70;7.00;;;;;;;8.01;100.00;100716.19;5079025;28;20239;-75
2022/10/05 03:52:14;;;;;;;8.03;7.37;;;;;;;8.02;100.00;100717.06;5070132;28;20192;-74
2022/10/05 03:55:07;;;;;;;8.83;7.97;;;;;;;7.99;100.00;100702.44;5081209;28;20189;-73
2022/10/05 03:57:37;;;;;;;8.80;8.00;;;;;;;7.99;100.00;100715.31;5071724;28;20234;-74
2022/10/05 04:00:15;;;;;;;9.67;8.83;;;;;;;7.99;100.00;100701.56;5077199;28;20188;-73
2022/10/05 04:03:02;;;;;;;9.70;8.83;;;;;;;7.99;100.00;100702.44;5076209;28;20198;-76
2022/10/05 04:05:32;;;;;;;10.70;9.80;;;;;;;7.99;100.00;100698.97;5081488;28;20709;-74
2022/10/05 04:08:05;;;;;;;10.43;9.43;;;;;;;8.00;100.00;100704.16;5076297;28;20286;-74
2022/10/05 04:10:43;;;;;;;10.43;9.53;;;;;;;8.02;100.00;100702.44;5077745;28;20213;-76
2022/10/05 04:13:20;;;;;;;10.00;9.10;;;;;;;8.02;100.00;100709.31;5077141;28;20226;-74
2022/10/05 04:15:58;;;;;;;9.60;8.70;;;;;;;8.01;100.00;100713.63;5083367;28;20224;-74
2022/10/05 04:18:38;;;;;;;8.60;7.80;;;;;;;7.97;100.00;100718.72;5083580;28;20211;-73
2022/10/05 04:21:17;;;;;;;8.33;7.67;;;;;;;7.92;100.00;100709.25;5078525;28;20659;-72
2022/10/05 04:23:56;;;;;;;7.37;6.77;;;;;;;7.90;100.00;100707.50;5080442;28;20335;-72
2022/10/05 04:27:03;;;;;;;7.87;7.23;;;;;;;7.84;100.00;100720.34;5083128;28;20203;-73
2022/10/05 04:29:36;;;;;;;8.33;7.63;;;;;;;7.82;100.00;100719.44;5068327;28;20256;-75
2022/10/05 04:32:04;;;;;;;8.10;7.40;;;;;;;7.81;100.00;100726.31;5071080;28;20744;-75
2022/10/05 04:35:02;;;;;;;7.67;6.87;;;;;;;7.79;100.00;100728.00;5087289;28;20250;-73
2022/10/05 04:37:43;;;;;;;7.33;6.70;;;;;;;7.75;100.00;100734.00;5085475;28;20197;-74
2022/10/05 04:40:36;;;;;;;8.13;7.43;;;;;;;7.72;100.00;100739.09;5078115;28;20201;-74
2022/10/05 04:43:14;;;;;;;8.10;7.40;;;;;;;7.69;100.00;100736.50;5084802;28;20291;-74
2022/10/05 04:46:12;;;;;;;8.97;8.07;;;;;;;7.67;100.00;100739.06;5083014;28;20216;-74
2022/10/05 04:48:49;;;;;;;8.23;7.53;;;;;;;7.66;100.00;100741.59;5083337;28;20218;-74
2022/10/05 04:51:26;;;;;;;8.03;7.40;;;;;;;7.63;100.00;100740.75;5078418;28;20186;-74
2022/10/05 04:54:12;;;;;;;8.33;7.70;;;;;;;7.64;100.00;100746.75;5085207;28;20248;-73
2022/10/05 04:56:43;;;;;;;8.33;7.57;;;;;;;7.63;100.00;100745.91;5080971;28;20201;-73
2022/10/05 04:59:48;;;;;;;8.10;7.40;;;;;;;7.60;100.00;100740.72;5088560;28;20218;-74
2022/10/05 05:02:27;;;;;;;7.20;6.60;;;;;;;7.57;100.00;100750.97;5075217;28;20644;-74
2022/10/05 05:05:23;;;;;;;7.50;6.80;;;;;;;7.53;100.00;100744.06;5074620;28;20658;-76
2022/10/05 05:08:13;;;;;;;7.40;6.80;;;;;;;7.52;100.00;100732.03;5078407;28;20219;-73
2022/10/05 05:11:31;;;;;;;7.50;6.80;;;;;;;7.52;100.00;100739.75;5072815;28;20227;-74
2022/10/05 05:14:09;;;;;;;6.83;6.33;;;;;;;7.53;100.00;100741.47;5049073;28;20939;-74
2022/10/05 05:16:41;;;;;;;6.23;5.73;;;;;;;7.54;100.00;100745.78;5072175;28;20304;-75
2022/10/05 05:19:45;;;;;;;6.77;6.20;;;;;;;7.55;100.00;100752.66;5086802;28;20694;-74
2022/10/05 05:22:35;;;;;;;5.87;5.43;;;;;;;7.52;100.00;100749.22;5083733;28;20172;-74
2022/10/05 05:25:25;;;;;;;5.63;5.10;;;;;;;7.50;100.00;100754.31;5085540;28;20265;-74
2022/10/05 05:28:02;;;;;;;6.10;5.60;;;;;;;7.50;100.00;100753.47;5085924;28;20211;-73
2022/10/05 05:30:51;;;;;;;6.20;5.60;;;;;;;7.51;100.00;100752.63;5086763;28;20182;-73
2022/10/05 05:33:22;;;;;;;6.30;5.80;;;;;;;7.53;100.00;100756.09;5083037;28;20216;-75
2022/10/05 05:36:05;;;;;;;7.40;5.60;;;;;;;7.57;100.00;100757.81;5079425;28;20203;-73
2022/10/05 05:38:30;;;;;;;6.77;6.27;;;;;;;7.61;100.00;100763.06;5090378;28;20207;-74
2022/10/05 05:41:13;;;;;;;6.23;5.73;;;;;;;7.67;100.00;100761.38;5080559;28;20174;-76
2022/10/05 05:43:49;;;;;;;7.33;6.00;;;;;;;7.73;100.00;100764.03;5090534;28;20188;-74
2022/10/05 05:46:26;;;;;;;7.53;6.73;;;;;;;7.75;100.00;100765.75;5084301;28;20187;-74
2022/10/05 05:48:54;;;;;;;8.00;7.30;;;;;;;7.83;100.00;100763.25;5088484;28;20206;-73
2022/10/05 05:51:36;;;;;;;8.07;7.37;;;;;;;7.88;100.00;100774.50;5090340;28;20578;-73
2022/10/05 05:54:23;;;;;;;7.43;6.83;;;;;;;7.93;100.00;100770.25;5089030;28;20818;-73
2022/10/05 05:56:56;;;;;;;7.77;7.07;;;;;;;7.97;100.00;100775.41;5089294;28;20211;-73
2022/10/05 05:59:34;;;;;;;7.13;6.50;;;;;;;8.00;100.00;100773.75;5085772;28;20207;-73
2022/10/05 06:02:08;;;;;;;7.77;7.07;;;;;;;8.05;100.00;100781.53;5089175;28;20219;-73
2022/10/05 06:04:48;;;;;;;7.87;7.17;;;;;;;8.09;100.00;100788.44;5084225;28;20605;-74
2022/10/05 06:07:23;;;;;;;7.53;6.93;;;;;;;8.15;100.00;100788.47;5077952;28;20176;-74
2022/10/05 06:09:51;;;;;;;7.27;6.67;;;;;;;8.19;100.00;100790.25;5090219;28;20188;-73
2022/10/05 06:12:38;;;;;;;7.07;6.47;;;;;;;8.29;100.00;100792.91;5080258;28;20196;-73
2022/10/05 06:15:24;;;;;;;7.47;6.77;;;;;;;8.34;100.00;100789.50;5076794;28;20232;-74
2022/10/05 06:17:55;;;;;;;7.27;6.67;;;;;;;8.42;100.00;100791.28;5088505;28;20211;-73
2022/10/05 06:20:34;;;;;;;6.93;6.33;;;;;;;8.50;100.00;100799.97;5083250;28;20673;-74
2022/10/05 06:23:04;;;;;;;7.83;7.13;;;;;;;8.58;100.00;100811.22;5089593;28;20185;-74
2022/10/05 06:25:51;;;;;;;7.33;6.63;;;;;;;8.68;100.00;100812.16;5086898;28;20205;-72
2022/10/05 06:28:18;;;;;;;6.43;5.80;;;;;;;8.76;100.00;100804.47;5086625;28;20197;-72
2022/10/05 06:30:55;;;;;;;6.13;5.63;;;;;;;8.87;100.00;100812.28;5093667;28;20596;-73
2022/10/05 06:33:39;;;;;;;6.20;5.70;;;;;;;8.92;100.00;100821.81;5097491;28;20263;-74
2022/10/05 06:36:17;;;;;;;5.90;5.40;;;;;;;9.00;100.00;100816.66;5075994;28;20252;-74
2022/10/05 06:38:54;;;;;;;6.00;5.50;;;;;;;9.06;100.00;100818.44;5088921;28;20205;-75
2022/10/05 06:41:53;;;;;;;4.90;4.50;;;;;;;9.12;100.00;100816.75;5102217;28;20169;-75
2022/10/05 06:44:32;;;;;;;5.33;4.93;;;;;;;9.19;100.00;100825.41;5100948;28;20193;-73
2022/10/05 06:47:03;;;;;;;5.30;4.90;;;;;;;9.24;100.00;100822.81;5091862;28;20176;-73
2022/10/05 06:49:35;;;;;;;5.37;4.97;;;;;;;9.31;100.00;100824.56;5081174;28;20654;-73
2022/10/05 06:52:19;;;;;;;5.57;5.13;;;;;;;9.36;100.00;100820.31;5081391;28;20189;-77
2022/10/05 06:54:54;;;;;;;5.77;5.27;;;;;;;9.41;100.00;100828.06;5077623;28;20194;-76
2022/10/05 06:57:57;;;;;;;5.27;4.83;;;;;;;9.48;100.00;100826.38;5087024;28;20205;-75
2022/10/05 07:00:28;;;;;;;5.70;5.20;;;;;;;9.54;100.00;100823.81;5084605;28;20188;-76
2022/10/05 07:03:02;;;;;;;5.50;5.00;;;;;;;9.60;100.00;100824.72;5080308;28;20230;-73
2022/10/05 07:06:08;;;;;;;6.20;5.53;;;;;;;9.68;100.00;100822.16;5077390;28;20185;-75
2022/10/05 07:08:41;;;;;;;6.10;5.60;;;;;;;9.77;100.00;100832.50;5080866;28;20193;-73
2022/10/05 07:11:22;;;;;;;6.47;5.97;;;;;;;9.89;100.00;100830.84;5076505;28;20197;-74
2022/10/05 07:14:02;;;;;;;7.27;6.67;;;;;;;10.01;100.00;100824.81;5082069;28;20581;-73
2022/10/05 07:17:22;;;;;;;7.57;6.97;;;;;;;10.11;100.00;100824.00;5085102;28;20228;-73
2022/10/05 07:20:12;;;;;;;7.80;7.10;;;;;;;10.20;100.00;100824.00;5065455;28;20292;-74
2022/10/05 07:22:47;;;;;;;8.30;7.60;;;;;;;10.25;100.00;100824.00;5095256;28;20181;-74
2022/10/05 07:25:19;;;;;;;8.37;7.67;;;;;;;10.29;100.00;100820.56;5078133;28;20193;-73
2022/10/05 07:28:04;;;;;;;8.43;7.73;;;;;;;10.34;100.00;100834.38;5087508;28;20295;-72
2022/10/05 07:30:39;;;;;;;8.70;8.00;;;;;;;10.39;100.00;100839.56;5082862;28;20205;-76
2022/10/05 07:33:10;;;;;;;8.00;7.40;;;;;;;10.44;100.00;100836.97;5086336;28;20177;-73
2022/10/05 07:38:37;;;;;;;9.27;8.47;;;;;;;10.60;100.00;100832.66;5086672;28;20215;-74
2022/10/05 07:41:14;;;;;;;9.13;8.33;;;;;;;10.66;100.00;100832.66;5079761;28;20188;-73
2022/10/05 07:43:53;;;;;;;8.67;8.00;;;;;;;10.75;100.00;100832.63;5090350;28;20605;-74
2022/10/05 07:46:33;;;;;;;8.33;7.63;;;;;;;10.83;100.00;100828.34;5085380;28;20197;-73
2022/10/05 07:49:14;;;;;;;9.00;8.30;;;;;;;10.96;100.00;100828.31;5073456;28;20216;-73
2022/10/05 07:51:44;;;;;;;8.57;7.87;;;;;;;11.09;100.00;100829.16;5087824;28;20190;-73
2022/10/05 07:54:17;;;;;;;8.87;8.13;;;;;;;11.23;100.00;100829.09;5076339;28;20208;-73
2022/10/05 07:57:00;;;;;;;8.47;7.77;;;;;;;11.37;100.00;100816.13;5084378;28;20217;-72
2022/10/05 07:59:37;;;;;;;8.00;7.30;;;;;;;11.49;100.00;100820.41;5082088;28;20240;-76
2022/10/05 08:02:30;;;;;;;8.13;7.43;;;;;;;11.65;100.00;100821.19;5081066;28;20181;-73
2022/10/05 08:05:03;;;;;;;7.70;7.10;;;;;;;11.79;100.00;100821.97;5082932;28;20184;-73
2022/10/05 08:07:33;;;;;;;7.73;7.03;;;;;;;11.93;100.00;100814.13;5088356;28;20191;-73
2022/10/05 08:10:04;;;;;;;8.10;7.50;;;;;;;12.08;100.00;100810.59;5086532;28;20189;-74
2022/10/05 08:12:33;;;;;;;8.53;7.83;;;;;;;12.22;100.00;100817.41;5088189;28;20631;-74
2022/10/05 08:15:17;;;;;;;7.90;7.30;;;;;;;12.35;100.00;100803.47;5082533;28;20265;-74
2022/10/05 08:17:53;;;;;;;8.17;7.47;;;;;;;12.51;100.00;100812.00;5077662;28;20255;-73
2022/10/05 08:20:28;;;;;;;7.87;7.27;;;;;;;12.66;100.00;100810.97;5084946;28;20196;-74
2022/10/05 08:23:00;;;;;;;8.07;7.27;;;;;;;12.80;100.00;100806.50;5086279;28;20177;-74
2022/10/05 08:25:39;;;;;;;7.17;6.50;;;;;;;12.93;100.00;100801.22;5080767;28;20563;-73
2022/10/05 08:28:21;;;;;;;8.53;7.63;;;;;;;13.08;100.00;100793.22;5084312;28;20221;-73
2022/10/05 08:31:02;;;;;;;8.33;7.63;;;;;;;13.22;100.00;100795.69;5085632;28;20198;-74
2022/10/05 08:33:40;;;;;;;7.70;7.00;;;;;;;13.31;100.00;100794.72;5083627;28;20212;-73
2022/10/05 08:36:11;;;;;;;7.90;7.20;;;;;;;13.41;100.00;100793.75;5085122;28;20266;-73
2022/10/05 08:38:38;;;;;;;7.27;6.67;;;;;;;13.54;100.00;100793.56;5086781;28;20302;-73
2022/10/05 08:41:45;;;;;;;7.33;6.73;;;;;;;13.67;100.00;100794.28;5079563;28;20189;-73
2022/10/05 08:44:54;;;;;;;7.10;6.57;;;;;;;13.79;100.00;100788.91;5084481;28;20278;-76
2022/10/05 08:47:56;;;;;;;7.07;6.47;;;;;;;13.90;100.00;100791.38;5084165;28;20220;-74
2022/10/05 08:50:44;;;;;;;7.03;6.43;;;;;;;14.00;100.00;100792.09;5085180;28;20202;-75
2022/10/05 08:53:15;;;;;;;6.23;5.73;;;;;;;14.05;100.00;100785.09;5080884;28;20188;-74
2022/10/05 08:56:00;;;;;;;6.37;5.87;;;;;;;14.11;100.00;100784.13;5086353;28;20248;-74
2022/10/05 08:58:50;;;;;;;7.13;6.53;;;;;;;14.12;100.00;100785.84;5090880;28;20242;-76
2022/10/05 09:01:47;;;;;;;6.50;5.90;;;;;;;14.20;100.00;100781.34;5081702;28;21030;-74
2022/10/05 09:04:57;;;;;;;6.20;5.80;;;;;;;14.27;100.00;100780.41;5105412;28;20233;-77
2022/10/05 09:07:42;;;;;;;5.83;5.43;;;;;;;14.43;100.00;100774.94;5041865;28;20188;-74
2022/10/05 09:10:22;;;;;;;6.27;5.77;;;;;;;14.51;100.00;100777.41;5051053;28;20273;-73
2022/10/05 09:13:16;;;;;;;5.80;5.30;;;;;;;14.62;100.00;100768.50;5080507;28;20184;-74
2022/10/05 09:16:09;;;;;;;6.67;6.10;;;;;;;14.77;100.00;100770.00;5085517;28;20462;-74
2022/10/05 09:19:01;;;;;;;6.60;6.00;;;;;;;14.93;100.00;100765.34;5084402;28;20205;-74
2022/10/05 09:21:56;;;;;;;6.50;6.00;;;;;;;15.05;100.00;100771.22;5082345;28;20185;-73
2022/10/05 09:24:51;;;;;;;6.50;6.00;;;;;;;15.20;100.00;100768.28;5086204;28;20186;-74
2022/10/05 09:27:17;;;;;;;7.10;6.40;;;;;;;15.32;100.00;100766.34;5075029;28;20280;-74
2022/10/05 09:30:05;;;;;;;6.30;5.80;;;;;;;15.44;100.00;100754.75;5080854;28;20181;-75
2022/10/05 09:32:50;;;;;;;5.80;5.30;;;;;;;15.57;100.00;100755.34;5082593;28;20181;-74
2022/10/05 09:35:39;;;;;;;5.93;5.40;;;;;;;15.70;100.00;100755.06;5076608;28;21020;-74
2022/10/05 09:38:25;;;;;;;5.83;5.33;;;;;;;15.87;100.00;100755.56;5074323;28;20791;-73
2022/10/05 09:41:41;;;;;;;5.53;5.03;;;;;;;16.03;100.00;100748.25;5088832;28;20667;-75
2022/10/05 09:44:44;;;;;;;5.27;4.77;;;;;;;16.14;100.00;100746.22;5069507;28;20216;-73
2022/10/05 09:47:40;;;;;;;5.00;4.60;;;;;;;16.24;100.00;100752.09;5087992;28;20181;-73
2022/10/05 09:50:36;;;;;;;5.20;4.80;;;;;;;16.29;100.00;100740.63;5080707;28;20742;-72
2022/10/05 09:53:04;;;;;;;4.17;3.87;;;;;;;16.38;100.00;100739.53;5087040;28;20182;-74
2022/10/05 09:55:51;;;;;;;4.60;4.20;;;;;;;16.51;100.00;100728.75;5078426;28;20211;-72
2022/10/05 09:58:41;;;;;;;4.23;3.80;;;;;;;16.59;100.00;100732.88;5083730;28;20222;-75
2022/10/05 10:01:28;;;;;;;4.63;4.23;;;;;;;16.75;100.00;100722.00;5078614;28;20254;-73
2022/10/05 10:04:06;;;;;;;4.77;4.37;;;;;;;16.90;100.00;100723.31;5076299;28;20662;-74
2022/10/05 10:07:15;;;;;;;4.47;4.17;;;;;;;17.01;100.00;100718.69;5082659;28;20683;-73
2022/10/05 10:09:46;;;;;;;4.53;4.23;;;;;;;17.13;100.00;100709.63;5082846;28;20682;-75
2022/10/05 10:12:42;;;;;;;4.50;4.10;;;;;;;17.26;100.00;100706.63;5086008;28;20187;-73
2022/10/05 10:15:19;;;;;;;4.37;3.97;;;;;;;17.36;100.00;100710.69;5085288;28;20443;-74
2022/10/05 10:18:04;;;;;;;4.40;4.03;;;;;;;17.46;100.00;100706.03;5083065;28;20211;-73
2022/10/05 10:20:54;;;;;;;3.27;3.07;;;;;;;17.54;100.00;100705.81;5089178;28;20835;-73
2022/10/05 10:23:38;;;;;;;4.13;3.80;;;;;;;17.61;100.00;100692.47;5079795;28;20211;-75
2022/10/05 10:26:22;;;;;;;3.43;3.13;;;;;;;17.69;100.00;100700.09;5086662;28;20223;-73
2022/10/05 10:29:04;;;;;;;4.00;3.70;;;;;;;17.87;100.00;100690.78;5080078;28;20303;-73
2022/10/05 10:31:33;;;;;;;4.33;4.00;;;;;;;17.93;100.00;100687.09;5088806;28;20207;-74
2022/10/05 10:34:41;;;;;;;4.40;3.73;;;;;;;18.03;100.00;100688.50;5090302;28;20287;-74
2022/10/05 10:37:35;;;;;;;4.23;3.83;;;;;;;18.17;100.00;100693.28;5079624;28;20703;-74
2022/10/05 10:40:06;;;;;;;4.07;3.77;;;;;;;18.25;100.00;100688.63;5092422;28;20179;-73
2022/10/05 10:42:45;;;;;;;4.80;3.63;;;;;;;18.30;100.00;100685.88;5088697;28;20195;-75
2022/10/05 10:45:21;;;;;;;3.83;3.53;;;;;;;18.34;100.00;100692.69;5081355;28;20264;-76
2022/10/05 10:48:02;;;;;;;3.70;3.40;;;;;;;18.39;100.00;100693.41;5078068;28;20212;-75
2022/10/05 10:50:36;;;;;;;3.37;3.07;;;;;;;18.51;100.00;100689.50;5090468;28;20185;-72
2022/10/05 10:53:10;;;;;;;2.97;2.77;;;;;;;18.64;100.00;100681.19;5083051;28;20192;-73
2022/10/05 10:55:54;;;;;;;3.23;2.70;;;;;;;18.73;100.00;100681.72;5083631;28;20211;-75
2022/10/05 10:58:52;;;;;;;2.93;2.40;;;;;;;18.83;100.00;100676.13;5087142;28;20664;-74
2022/10/05 11:01:48;;;;;;;2.93;2.67;;;;;;;18.95;100.00;100678.31;5081113;28;20177;-74
2022/10/05 11:04:41;;;;;;;3.00;2.80;;;;;;;19.01;100.00;100679.84;5079983;28;20226;-73
2022/10/05 11:07:38;;;;;;;2.70;2.50;;;;;;;19.11;100.00;100683.84;5077290;28;20190;-75
2022/10/05 11:10:19;;;;;;;2.60;2.40;;;;;;;19.30;100.00;100672.59;5080952;28;20177;-73
2022/10/05 11:12:57;;;;;;;2.77;2.20;;;;;;;19.40;100.00;100670.47;5101259;28;20181;-73
2022/10/05 11:15:47;;;;;;;2.40;2.20;;;;;;;19.52;100.00;100675.22;5088336;28;20183;-74
2022/10/05 11:18:40;;;;;;;2.80;2.30;;;;;;;19.63;100.00;100664.31;5088943;28;20685;-75
2022/10/05 11:21:36;;;;;;;2.13;2.03;;;;;;;19.71;100.00;100664.00;5075004;28;21213;-73
2022/10/05 11:24:37;;;;;;;2.27;2.07;;;;;;;19.78;100.00;100657.59;5075823;28;20190;-73
2022/10/05 11:27:31;;;;;;;2.30;2.10;;;;;;;19.90;100.00;100648.34;5075563;28;20186;-74
2022/10/05 11:30:15;;;;;;;2.63;2.30;;;;;;;20.03;100.00;100648.69;5086971;28;20189;-75
2022/10/05 11:32:59;;;;;;;2.53;2.30;;;;;;;20.13;100.00;100643.91;5093087;28;20267;-74
2022/10/05 11:35:30;;;;;;;2.97;2.53;;;;;;;20.21;100.00;100650.53;5088937;28;20189;-74
2022/10/05 11:38:08;;;;;;;3.10;2.10;;;;;;;20.25;100.00;100640.72;5082917;28;20991;-75
2022/10/05 11:40:48;;;;;;;2.63;1.90;;;;;;;20.31;100.00;100635.22;5087467;28;20243;-74
2022/10/05 11:43:19;;;;;;;2.87;2.17;;;;;;;20.39;100.00;100630.47;5085450;28;20645;-73
2022/10/05 11:45:54;;;;;;;1.90;1.80;;;;;;;20.45;100.00;100631.94;5087199;28;20629;-75
2022/10/05 11:48:22;;;;;;;2.00;1.77;;;;;;;20.51;100.00;100625.56;5087344;28;20646;-74
2022/10/05 11:50:55;;;;;;;2.00;1.90;;;;;;;20.59;100.00;100622.59;5088898;28;20181;-74
2022/10/05 11:53:28;;;;;;;2.00;1.90;;;;;;;20.59;100.00;100631.34;5085937;28;20258;-74
2022/10/05 11:56:04;;;;;;;3.13;1.80;;;;;;;20.63;100.00;100625.03;5088069;28;20598;-74
2022/10/05 11:58:41;;;;;;;2.10;1.77;;;;;;;20.68;100.00;100620.38;5086848;28;20200;-75
2022/10/05 12:01:19;;;;;;;2.00;1.73;;;;;;;20.70;100.00;100620.34;5084966;28;20185;-74
2022/10/05 12:03:45;;;;;;;2.17;1.90;;;;;;;20.72;100.00;100610.59;5087466;28;20373;-73
2022/10/05 12:06:20;;;;;;;1.97;1.83;;;;;;;20.76;99.54;100612.19;5086752;28;20204;-72
2022/10/05 12:09:14;;;;;;;2.27;1.80;;;;;;;20.76;99.84;100611.34;5089006;28;20307;-74
2022/10/05 12:12:07;;;;;;;4.20;2.03;;;;;;;20.72;98.46;100600.09;5086891;28;20544;-73
2022/10/05 12:15:01;;;;;;;1.73;1.63;;;;;;;20.65;98.77;100601.28;5085490;28;20199;-74
2022/10/05 12:17:37;;;;;;;1.80;1.70;;;;;;;20.62;98.82;100598.78;5088470;28;20208;-73
2022/10/05 12:20:27;;;;;;;2.20;1.77;;;;;;;20.64;98.81;100602.19;5093738;28;20180;-74
2022/10/05 12:23:05;;;;;;;3.57;1.87;;;;;;;20.60;98.74;100601.50;5076364;28;20191;-74
2022/10/05 12:25:47;;;;;;;2.00;1.90;;;;;;;20.54;98.78;100593.88;5082608;28;20205;-76
2022/10/05 12:28:22;;;;;;;1.90;1.70;;;;;;;20.53;98.46;100593.03;5083570;28;20202;-75